Time;durP1;ratioP1;P1;durP2;ratioP2;P2;SDS_P1;SDS_P2;PMS_P1;PMS_P2;Temp;Humidity;BMP_temperature;BMP_pressure;BME280_temperature;BME280_humidity;BME280_pressure;Samples;Min_cycle;Max_cycle;Signal;HPM_P1;HPM_P2
2021/06/15 00:01:33;;;;;;;1.30;1.20;;;18.20;66.00;;;;;;4996147;28;20025;-77
2021/06/15 00:03:58;;;;;;;2.03;1.33;;;18.20;66.10;;;;;;5013633;28;20479;-76
2021/06/15 00:06:24;;;;;;;1.05;0.95;;;18.20;66.10;;;;;;5014346;28;20049;-76
2021/06/15 00:08:49;;;;;;;1.38;1.27;;;18.20;66.00;;;;;;5014182;28;20101;-76
2021/06/15 00:11:15;;;;;;;1.20;1.10;;;18.20;66.00;;;;;;4996729;28;20410;-76
2021/06/15 00:13:40;;;;;;;0.80;0.80;;;18.20;66.10;;;;;;5014041;28;20441;-77
2021/06/15 00:16:06;;;;;;;0.85;0.85;;;18.20;66.00;;;;;;5013605;28;20070;-77
2021/06/15 00:18:33;;;;;;;0.82;0.82;;;18.20;66.00;;;;;;4996556;28;20355;-77
2021/06/15 00:20:59;;;;;;;0.70;0.70;;;18.30;65.90;;;;;;5014126;28;20495;-77
2021/06/15 00:23:25;;;;;;;0.90;0.90;;;18.20;65.80;;;;;;5013957;28;20033;-77
2021/06/15 00:25:50;;;;;;;1.10;0.93;;;18.20;65.80;;;;;;5013797;28;20589;-76
2021/06/15 00:28:16;;;;;;;0.80;0.70;;;18.20;65.90;;;;;;5014025;28;20072;-76
2021/06/15 00:30:42;;;;;;;1.55;1.02;;;18.10;66.00;;;;;;5013580;28;20486;-76
2021/06/15 00:33:08;;;;;;;1.25;1.10;;;18.10;66.00;;;;;;5013628;28;20394;-77
2021/06/15 00:35:34;;;;;;;1.33;1.23;;;18.10;66.10;;;;;;5013762;28;20034;-76
2021/06/15 00:38:00;;;;;;;0.80;0.80;;;18.00;66.20;;;;;;5013670;28;20018;-77
2021/06/15 00:40:26;;;;;;;0.95;0.80;;;18.00;66.20;;;;;;5013715;28;20542;-77
2021/06/15 00:42:52;;;;;;;1.10;1.00;;;18.00;66.20;;;;;;5013728;28;20041;-76
2021/06/15 00:45:21;;;;;;;0.80;0.80;;;18.00;66.30;;;;;;5013405;28;20105;-77
2021/06/15 00:47:48;;;;;;;1.10;1.00;;;18.00;66.30;;;;;;5013580;28;20018;-77
2021/06/15 00:50:15;;;;;;;0.80;0.80;;;17.90;66.40;;;;;;5013610;28;20022;-77
2021/06/15 00:52:43;;;;;;;1.23;1.13;;;17.90;66.50;;;;;;5013436;28;20014;-76
2021/06/15 00:55:09;;;;;;;1.10;1.10;;;17.90;66.60;;;;;;5013553;28;20113;-76
2021/06/15 00:57:35;;;;;;;1.13;1.02;;;17.90;66.60;;;;;;5013493;28;20018;-76
2021/06/15 01:00:00;;;;;;;1.40;0.88;;;17.90;66.50;;;;;;5012870;28;20033;-77
2021/06/15 01:02:28;;;;;;;0.63;0.63;;;17.80;66.50;;;;;;4995860;28;20517;-77
2021/06/15 01:04:55;;;;;;;0.80;0.77;;;17.80;66.50;;;;;;5013559;28;20429;-76
2021/06/15 01:07:26;;;;;;;1.33;1.00;;;17.80;66.60;;;;;;5013493;28;20135;-76
2021/06/15 01:10:10;;;;;;;0.98;0.70;;;17.70;66.70;;;;;;5013412;28;20029;-76
2021/06/15 01:12:54;;;;;;;0.60;0.60;;;17.70;66.70;;;;;;5013162;28;20030;-77
2021/06/15 01:15:36;;;;;;;1.60;1.27;;;17.70;66.70;;;;;;5012733;28;20104;-76
2021/06/15 01:18:09;;;;;;;0.95;0.90;;;17.60;66.70;;;;;;5013289;28;20113;-76
2021/06/15 01:20:38;;;;;;;0.95;0.80;;;17.60;66.80;;;;;;5013205;28;20029;-77
2021/06/15 01:23:14;;;;;;;0.68;0.68;;;17.60;66.90;;;;;;5013335;28;20025;-77
2021/06/15 01:26:13;;;;;;;1.27;0.88;;;17.50;66.80;;;;;;5013211;28;20030;-75
2021/06/15 01:29:03;;;;;;;1.35;0.80;;;17.50;66.80;;;;;;5012671;28;20034;-77
2021/06/15 01:31:45;;;;;;;0.80;0.80;;;17.50;66.80;;;;;;4988325;28;20034;-76
2021/06/15 01:34:20;;;;;;;0.85;0.77;;;17.50;66.80;;;;;;5012705;28;20429;-77
2021/06/15 01:37:01;;;;;;;0.82;0.82;;;17.40;66.90;;;;;;5013102;28;20049;-77
2021/06/15 01:39:31;;;;;;;0.82;0.82;;;17.40;66.80;;;;;;4995530;28;20463;-76
2021/06/15 01:42:02;;;;;;;1.25;0.98;;;17.40;66.90;;;;;;4995378;28;20514;-77
2021/06/15 01:44:30;;;;;;;1.33;1.13;;;17.30;66.90;;;;;;4995108;28;20018;-77
2021/06/15 01:47:06;;;;;;;1.05;0.85;;;17.30;67.00;;;;;;5012962;28;20502;-76
2021/06/15 01:49:41;;;;;;;0.77;0.75;;;17.30;67.10;;;;;;5013029;28;20057;-76
2021/06/15 01:52:08;;;;;;;0.80;0.80;;;17.20;67.10;;;;;;5013098;28;20076;-76
2021/06/15 01:54:36;;;;;;;0.80;0.80;;;17.20;67.10;;;;;;5012839;28;20033;-75
2021/06/15 01:57:03;;;;;;;1.08;1.00;;;17.20;67.10;;;;;;5012861;28;20014;-76
2021/06/15 01:59:30;;;;;;;1.20;0.98;;;17.20;67.10;;;;;;5012444;28;20026;-76
2021/06/15 02:01:57;;;;;;;0.63;0.63;;;17.20;67.10;;;;;;5012881;28;20509;-75
2021/06/15 02:04:32;;;;;;;0.70;0.70;;;17.20;67.10;;;;;;5012980;28;20026;-76
2021/06/15 02:06:59;;;;;;;1.05;0.90;;;17.20;67.00;;;;;;5012951;28;20037;-75
2021/06/15 02:09:27;;;;;;;1.10;0.85;;;17.20;67.00;;;;;;5012699;28;20108;-76
2021/06/15 02:11:52;;;;;;;0.70;0.70;;;17.20;67.00;;;;;;5012345;28;20022;-76
2021/06/15 02:14:25;;;;;;;0.57;0.57;;;17.20;67.10;;;;;;5012746;28;20368;-75
2021/06/15 02:16:53;;;;;;;1.48;0.98;;;17.20;67.30;;;;;;5012968;28;20534;-77
2021/06/15 02:19:24;;;;;;;1.23;0.77;;;17.20;67.30;;;;;;5012791;28;20030;-77
2021/06/15 02:21:59;;;;;;;0.70;0.60;;;17.20;67.20;;;;;;5012620;28;20033;-76
2021/06/15 02:24:31;;;;;;;1.02;1.02;;;17.20;67.30;;;;;;5012813;28;20018;-77
2021/06/15 02:26:57;;;;;;;1.00;0.90;;;17.20;67.20;;;;;;5014171;28;20364;-77
2021/06/15 02:29:24;;;;;;;1.52;1.05;;;17.30;67.20;;;;;;5016299;28;20018;-77
2021/06/15 02:31:56;;;;;;;0.70;0.70;;;17.20;67.10;;;;;;5016033;28;20018;-75
2021/06/15 02:34:24;;;;;;;0.65;0.65;;;17.30;67.20;;;;;;5015800;28;20490;-76
2021/06/15 02:36:51;;;;;;;0.70;0.60;;;17.30;67.10;;;;;;4998350;28;20018;-76
2021/06/15 02:39:24;;;;;;;1.25;0.60;;;17.40;67.10;;;;;;5016051;28;20061;-77
2021/06/15 02:41:51;;;;;;;0.88;0.88;;;17.40;67.00;;;;;;4997655;28;20030;-77
2021/06/15 02:44:20;;;;;;;0.75;0.75;;;17.40;67.00;;;;;;5015943;28;20022;-77
2021/06/15 02:46:54;;;;;;;1.05;0.88;;;17.40;67.00;;;;;;5015817;28;20030;-77
2021/06/15 02:49:23;;;;;;;0.60;0.60;;;17.40;67.10;;;;;;5015887;28;20026;-76
2021/06/15 02:52:20;;;;;;;0.65;0.60;;;17.30;67.10;;;;;;5015522;28;20080;-77
2021/06/15 02:54:52;;;;;;;0.70;0.70;;;17.40;67.20;;;;;;5015693;28;20064;-77
2021/06/15 02:57:20;;;;;;;0.95;0.65;;;17.30;67.20;;;;;;5015312;28;20022;-77
2021/06/15 02:59:46;;;;;;;0.65;0.50;;;17.30;67.20;;;;;;5015643;28;20026;-77
2021/06/15 03:02:12;;;;;;;0.50;0.50;;;17.40;67.30;;;;;;5015623;28;20561;-78
2021/06/15 03:04:37;;;;;;;0.60;0.60;;;17.40;67.30;;;;;;4997769;28;20178;-76
2021/06/15 03:07:03;;;;;;;0.80;0.75;;;17.40;67.10;;;;;;5015531;28;20028;-77
2021/06/15 03:09:29;;;;;;;0.90;0.60;;;17.40;67.10;;;;;;5015482;28;20053;-77
2021/06/15 03:12:15;;;;;;;0.60;0.60;;;17.40;67.20;;;;;;4997382;28;20160;-77
2021/06/15 03:14:45;;;;;;;0.65;0.50;;;17.50;67.10;;;;;;5015362;28;20391;-75
2021/06/15 03:17:12;;;;;;;0.93;0.80;;;17.60;67.10;;;;;;5015283;28;20072;-77
2021/06/15 03:20:07;;;;;;;1.00;0.88;;;17.60;66.90;;;;;;5015310;28;20030;-77
2021/06/15 03:22:41;;;;;;;0.75;0.75;;;17.60;66.90;;;;;;5015272;28;20022;-77
2021/06/15 03:25:09;;;;;;;0.60;0.60;;;17.50;67.20;;;;;;5014784;28;20026;-76
2021/06/15 03:27:48;;;;;;;0.80;0.80;;;17.50;67.20;;;;;;5015238;28;20033;-76
2021/06/15 03:30:14;;;;;;;1.13;0.70;;;17.50;67.20;;;;;;5015455;28;20064;-77
2021/06/15 03:32:53;;;;;;;0.68;0.68;;;17.40;67.10;;;;;;5012850;28;20466;-74
2021/06/15 03:35:23;;;;;;;0.68;0.60;;;17.50;67.20;;;;;;5015075;28;20038;-77
2021/06/15 03:37:52;;;;;;;0.80;0.80;;;17.50;67.10;;;;;;5013769;28;20018;-78
2021/06/15 03:40:20;;;;;;;0.60;0.60;;;17.60;67.10;;;;;;5014514;28;20112;-78
2021/06/15 03:42:45;;;;;;;0.43;0.40;;;17.60;67.00;;;;;;4997292;28;20026;-77
2021/06/15 03:45:14;;;;;;;0.85;0.82;;;17.60;66.90;;;;;;4997259;28;20036;-77
2021/06/15 03:47:41;;;;;;;0.73;0.65;;;17.60;66.80;;;;;;5014711;28;20394;-76
2021/06/15 03:50:08;;;;;;;0.57;0.57;;;17.70;66.80;;;;;;5014537;28;20094;-76
2021/06/15 03:52:38;;;;;;;0.85;0.65;;;17.70;66.80;;;;;;5014782;28;20104;-77
2021/06/15 03:55:07;;;;;;;0.60;0.60;;;17.70;66.70;;;;;;5014292;28;20040;-77
2021/06/15 03:57:35;;;;;;;0.47;0.43;;;17.60;66.80;;;;;;5014579;28;20080;-76
2021/06/15 04:00:03;;;;;;;0.65;0.63;;;17.60;67.00;;;;;;5014257;28;20029;-77
2021/06/15 04:02:33;;;;;;;0.50;0.50;;;17.50;67.00;;;;;;5014445;28;20025;-77
2021/06/15 04:04:59;;;;;;;0.73;0.57;;;17.60;67.10;;;;;;4996798;28;20025;-76
2021/06/15 04:07:25;;;;;;;0.73;0.73;;;17.50;67.00;;;;;;5014276;28;20105;-77
2021/06/15 04:09:52;;;;;;;0.30;0.30;;;17.50;66.90;;;;;;4996273;28;20168;-77
2021/06/15 04:12:23;;;;;;;0.40;0.40;;;17.50;67.00;;;;;;5014344;28;20018;-75
2021/06/15 04:14:51;;;;;;;0.63;0.60;;;17.50;67.00;;;;;;5014191;28;20117;-76
2021/06/15 04:17:21;;;;;;;1.10;0.30;;;17.60;66.80;;;;;;5014071;28;20026;-77
2021/06/15 04:19:49;;;;;;;0.50;0.50;;;17.50;66.90;;;;;;5014266;28;20176;-76
2021/06/15 04:22:17;;;;;;;0.85;0.85;;;17.40;67.00;;;;;;5014132;28;20018;-76
2021/06/15 04:24:48;;;;;;;0.43;0.43;;;17.50;67.00;;;;;;5013668;28;20030;-78
2021/06/15 04:27:17;;;;;;;0.38;0.38;;;17.50;67.50;;;;;;5014087;28;20022;-76
2021/06/15 04:29:43;;;;;;;0.20;0.20;;;17.50;66.70;;;;;;5014051;28;20069;-77
2021/06/15 04:32:10;;;;;;;0.40;0.40;;;17.60;66.70;;;;;;5013894;28;20021;-76
2021/06/15 04:34:41;;;;;;;0.50;0.50;;;17.70;66.50;;;;;;5013703;28;20510;-75
2021/06/15 04:37:09;;;;;;;0.77;0.40;;;17.70;66.50;;;;;;5013693;28;20036;-76
2021/06/15 04:39:45;;;;;;;0.40;0.40;;;17.60;66.40;;;;;;4996071;28;20386;-77
2021/06/15 04:42:16;;;;;;;0.50;0.50;;;17.60;66.40;;;;;;5013860;28;20467;-76
2021/06/15 04:44:45;;;;;;;0.30;0.30;;;17.60;66.60;;;;;;5013796;28;20053;-76
2021/06/15 04:47:25;;;;;;;0.30;0.30;;;17.60;66.50;;;;;;5013628;28;20025;-77
2021/06/15 04:50:05;;;;;;;0.20;0.20;;;17.60;66.40;;;;;;5013441;28;20026;-77
2021/06/15 04:52:32;;;;;;;0.70;0.47;;;17.60;66.50;;;;;;4995474;28;20022;-76
2021/06/15 04:55:00;;;;;;;0.17;0.17;;;17.50;66.40;;;;;;4996204;28;20045;-75
2021/06/15 04:57:29;;;;;;;0.30;0.30;;;17.50;67.10;;;;;;5013645;28;20371;-77
2021/06/15 04:59:59;;;;;;;0.20;0.20;;;17.50;66.40;;;;;;5013750;28;20331;-77
2021/06/15 05:02:27;;;;;;;0.30;0.30;;;17.50;66.30;;;;;;5013699;28;20022;-77
2021/06/15 05:04:53;;;;;;;0.20;0.20;;;17.50;66.30;;;;;;4995899;28;20386;-76
2021/06/15 05:07:20;;;;;;;0.30;0.17;;;17.50;66.20;;;;;;4995530;28;20028;-76
2021/06/15 05:09:53;;;;;;;0.30;0.30;;;17.40;66.30;;;;;;4995799;28;20493;-77
2021/06/15 05:12:20;;;;;;;0.10;0.10;;;17.50;66.40;;;;;;5013596;28;20105;-76
2021/06/15 05:14:46;;;;;;;0.30;0.20;;;17.50;66.30;;;;;;5013217;28;20072;-76
2021/06/15 05:17:14;;;;;;;0.43;0.38;;;17.50;66.10;;;;;;5013277;28;20025;-77
2021/06/15 05:19:41;;;;;;;0.10;0.10;;;17.40;66.20;;;;;;5013361;28;20029;-77
2021/06/15 05:22:41;;;;;;;0.22;0.22;;;17.40;66.30;;;;;;5013128;28;20074;-75
2021/06/15 05:25:09;;;;;;;0.52;0.40;;;17.30;66.30;;;;;;5010205;28;20095;-76
2021/06/15 05:27:35;;;;;;;0.30;0.30;;;17.30;66.30;;;;;;5013080;28;20026;-78
2021/06/15 05:30:04;;;;;;;0.50;0.45;;;17.30;66.30;;;;;;5013216;28;20033;-77
2021/06/15 05:32:30;;;;;;;0.70;0.30;;;17.40;66.20;;;;;;5013331;28;20029;-78
2021/06/15 05:34:56;;;;;;;0.10;0.10;;;17.50;66.00;;;;;;5012484;28;20045;-76
2021/06/15 05:37:22;;;;;;;0.40;0.40;;;17.60;65.80;;;;;;5013052;28;20033;-76
2021/06/15 05:39:48;;;;;;;0.20;0.20;;;17.70;65.60;;;;;;5013167;28;20481;-77
2021/06/15 05:42:14;;;;;;;0.63;0.50;;;17.70;65.50;;;;;;4995544;28;20061;-77
2021/06/15 05:44:41;;;;;;;0.20;0.20;;;17.60;65.60;;;;;;5013264;28;20525;-76
2021/06/15 05:47:07;;;;;;;0.40;0.40;;;17.60;65.80;;;;;;4995286;28;20030;-78
2021/06/15 05:49:33;;;;;;;0.28;0.28;;;17.60;65.90;;;;;;5012743;28;20116;-78
2021/06/15 05:52:03;;;;;;;0.20;0.20;;;17.70;65.70;;;;;;5013105;28;20056;-76
2021/06/15 05:54:29;;;;;;;0.45;0.20;;;17.80;65.40;;;;;;5012936;28;20501;-76
2021/06/15 05:56:55;;;;;;;0.43;0.20;;;17.90;65.30;;;;;;5012799;28;20386;-78
2021/06/15 05:59:20;;;;;;;0.68;0.20;;;17.90;65.30;;;;;;5012973;28;20037;-79
2021/06/15 06:01:46;;;;;;;0.10;0.10;;;18.00;65.30;;;;;;5014516;28;20028;-79
2021/06/15 06:04:13;;;;;;;0.20;0.20;;;18.10;65.10;;;;;;5016364;28;20030;-79
2021/06/15 06:09:23;;;;;;;0.45;0.20;;;18.20;65.00;;;;;;5016584;28;20178;-77
2021/06/15 06:11:49;;;;;;;0.22;0.22;;;18.20;64.90;;;;;;5016697;28;20046;-74
2021/06/15 06:14:15;;;;;;;0.10;0.10;;;18.30;64.90;;;;;;5016472;28;20498;-76
2021/06/15 06:16:43;;;;;;;0.20;0.20;;;18.40;64.70;;;;;;5016478;28;20060;-75
2021/06/15 06:19:11;;;;;;;0.22;0.22;;;18.50;64.60;;;;;;4998208;28;20453;-77
2021/06/15 06:21:37;;;;;;;0.80;0.30;;;18.60;64.50;;;;;;4998589;28;20092;-77
2021/06/15 06:24:05;;;;;;;0.80;0.28;;;18.80;64.30;;;;;;4998650;28;20029;-77
2021/06/15 06:26:30;;;;;;;0.68;0.40;;;18.80;64.10;;;;;;5016316;28;20045;-75
2021/06/15 06:28:56;;;;;;;0.20;0.20;;;18.80;64.10;;;;;;5016240;28;20064;-74
2021/06/15 06:31:22;;;;;;;0.15;0.10;;;18.90;64.10;;;;;;5016234;28;20056;-76
2021/06/15 06:33:48;;;;;;;0.60;0.38;;;18.90;64.00;;;;;;5015458;28;20511;-76
2021/06/15 06:36:14;;;;;;;0.47;0.28;;;18.90;63.90;;;;;;5016056;28;20467;-76
2021/06/15 06:38:40;;;;;;;0.20;0.20;;;18.80;64.10;;;;;;5015935;28;20046;-75
2021/06/15 06:41:06;;;;;;;0.25;0.17;;;18.80;64.30;;;;;;5016053;28;20018;-75
2021/06/15 06:43:32;;;;;;;0.20;0.20;;;18.90;64.10;;;;;;5016068;28;20105;-76
2021/06/15 06:45:58;;;;;;;0.10;0.10;;;19.00;63.90;;;;;;5015908;28;20029;-75
2021/06/15 06:48:23;;;;;;;0.63;0.30;;;19.00;63.80;;;;;;5015484;28;20026;-74
2021/06/15 06:50:50;;;;;;;0.10;0.10;;;19.00;63.90;;;;;;5015859;28;20022;-75
2021/06/15 06:53:15;;;;;;;0.50;0.20;;;19.00;63.70;;;;;;5015732;28;20034;-75
2021/06/15 06:55:41;;;;;;;0.40;0.40;;;19.00;63.60;;;;;;5015630;28;20026;-74
2021/06/15 06:58:06;;;;;;;0.20;0.20;;;19.00;64.00;;;;;;5015668;28;20057;-74
2021/06/15 07:00:33;;;;;;;1.08;0.30;;;19.00;63.60;;;;;;5015702;28;20022;-78
2021/06/15 07:02:59;;;;;;;1.35;0.40;;;19.10;63.60;;;;;;5015042;28;20112;-74
2021/06/15 07:05:24;;;;;;;0.20;0.20;;;19.00;63.60;;;;;;5015515;28;20122;-75
2021/06/15 07:07:51;;;;;;;0.65;0.30;;;19.00;63.60;;;;;;4997853;28;20022;-75
2021/06/15 07:10:18;;;;;;;0.60;0.30;;;19.00;63.60;;;;;;5015496;28;20060;-76
2021/06/15 07:12:44;;;;;;;0.13;0.13;;;19.00;63.40;;;;;;5015203;28;20425;-74
2021/06/15 07:15:10;;;;;;;0.30;0.30;;;19.00;63.40;;;;;;5015280;28;20033;-74
2021/06/15 07:17:35;;;;;;;0.75;0.38;;;19.10;63.90;;;;;;5014590;28;20049;-76
2021/06/15 07:20:01;;;;;;;0.22;0.22;;;19.00;63.20;;;;;;5015186;28;20068;-74
2021/06/15 07:22:27;;;;;;;0.20;0.20;;;19.00;63.20;;;;;;5015261;28;20113;-75
2021/06/15 07:24:52;;;;;;;0.22;0.20;;;19.20;63.00;;;;;;5015208;28;20430;-74
2021/06/15 07:27:18;;;;;;;0.38;0.28;;;19.20;62.90;;;;;;5015060;28;20042;-74
2021/06/15 07:29:43;;;;;;;0.30;0.20;;;19.20;62.80;;;;;;4997444;28;20021;-77
2021/06/15 07:32:09;;;;;;;0.30;0.30;;;19.20;62.80;;;;;;5014577;28;20049;-75
2021/06/15 07:34:35;;;;;;;0.95;0.30;;;19.20;62.70;;;;;;5012571;28;20125;-75
2021/06/15 07:37:00;;;;;;;0.95;0.50;;;19.20;62.50;;;;;;5014718;28;20390;-74
2021/06/15 07:39:26;;;;;;;0.63;0.40;;;19.10;62.50;;;;;;5014936;28;20033;-74
2021/06/15 07:41:51;;;;;;;0.55;0.55;;;19.30;62.10;;;;;;5014931;28;20463;-75
2021/06/15 07:44:17;;;;;;;1.85;0.60;;;19.40;61.90;;;;;;5014687;28;20033;-74
2021/06/15 07:46:43;;;;;;;0.52;0.40;;;19.50;61.70;;;;;;5014259;28;20026;-75
2021/06/15 07:49:09;;;;;;;0.47;0.40;;;19.50;61.50;;;;;;5014619;28;20057;-75
2021/06/15 07:51:38;;;;;;;0.20;0.20;;;19.50;61.50;;;;;;5014642;28;20030;-73
2021/06/15 07:54:04;;;;;;;0.30;0.30;;;19.60;61.50;;;;;;5014447;28;20483;-73
2021/06/15 07:56:30;;;;;;;0.70;0.50;;;19.60;61.30;;;;;;5014580;28;20057;-74
2021/06/15 07:58:55;;;;;;;0.77;0.40;;;19.60;61.30;;;;;;4996912;28;20057;-75
2021/06/15 08:01:21;;;;;;;0.43;0.30;;;19.70;61.20;;;;;;4996138;28;20026;-73
2021/06/15 08:03:47;;;;;;;0.10;0.10;;;19.70;61.70;;;;;;5014340;28;20073;-75
2021/06/15 08:06:13;;;;;;;0.90;0.40;;;19.80;60.90;;;;;;5014291;28;20498;-76
2021/06/15 08:08:38;;;;;;;0.17;0.17;;;19.90;60.70;;;;;;4996748;28;20541;-74
2021/06/15 08:11:04;;;;;;;0.15;0.15;;;20.00;60.60;;;;;;4996470;28;20537;-74
2021/06/15 08:13:30;;;;;;;0.28;0.20;;;20.10;60.30;;;;;;4996484;28;20052;-74
2021/06/15 08:15:56;;;;;;;0.35;0.30;;;20.30;60.00;;;;;;5013704;28;20101;-75
2021/06/15 08:18:22;;;;;;;0.30;0.20;;;20.40;60.10;;;;;;5014003;28;20065;-74
2021/06/15 08:20:53;;;;;;;0.32;0.20;;;20.40;60.50;;;;;;5014028;28;20376;-76
2021/06/15 08:23:19;;;;;;;0.10;0.10;;;20.60;60.40;;;;;;5014010;28;20026;-73
2021/06/15 08:25:44;;;;;;;1.13;0.30;;;20.60;59.70;;;;;;5013691;28;20026;-74
2021/06/15 08:28:11;;;;;;;0.35;0.30;;;20.60;59.70;;;;;;4996416;28;20033;-75
2021/06/15 08:30:37;;;;;;;0.40;0.20;;;20.50;59.80;;;;;;4995738;28;20025;-74
2021/06/15 08:33:03;;;;;;;0.10;0.10;;;20.60;59.60;;;;;;5012539;28;20490;-75
2021/06/15 08:35:29;;;;;;;0.20;0.20;;;20.60;59.60;;;;;;5012855;28;20045;-76
2021/06/15 08:37:55;;;;;;;0.17;0.10;;;20.70;59.40;;;;;;5014033;28;20359;-74
2021/06/15 08:40:23;;;;;;;0.17;0.17;;;20.70;59.40;;;;;;5013780;28;20025;-75
2021/06/15 08:42:49;;;;;;;0.32;0.25;;;20.70;59.40;;;;;;5013825;28;20093;-73
2021/06/15 08:45:16;;;;;;;0.47;0.25;;;20.70;59.30;;;;;;5013114;28;20442;-75
2021/06/15 08:47:44;;;;;;;0.10;0.10;;;20.60;59.40;;;;;;5013663;28;20092;-75
2021/06/15 08:50:17;;;;;;;0.20;0.20;;;20.60;59.60;;;;;;5013703;28;20029;-75
2021/06/15 08:52:43;;;;;;;0.10;0.10;;;20.60;59.50;;;;;;5013608;28;20026;-76
2021/06/15 08:55:10;;;;;;;0.25;0.25;;;20.80;59.40;;;;;;5013501;28;20386;-73
2021/06/15 08:57:37;;;;;;;0.70;0.30;;;20.90;59.20;;;;;;5013407;28;20050;-76
2021/06/15 09:00:05;;;;;;;0.38;0.20;;;21.10;59.00;;;;;;5013012;28;20036;-74
2021/06/15 09:02:31;;;;;;;0.10;0.10;;;21.30;58.80;;;;;;5013404;28;20029;-75
2021/06/15 09:04:56;;;;;;;1.85;0.30;;;21.40;58.60;;;;;;5013501;28;20029;-73
2021/06/15 09:07:22;;;;;;;0.10;0.10;;;21.40;58.60;;;;;;5013533;28;20068;-75
2021/06/15 09:09:49;;;;;;;0.32;0.28;;;21.40;58.70;;;;;;5013226;28;20502;-73
2021/06/15 09:12:21;;;;;;;0.63;0.20;;;21.30;58.70;;;;;;5013338;28;20029;-76
2021/06/15 09:14:55;;;;;;;0.20;0.20;;;21.30;59.50;;;;;;5013281;28;20120;-76
2021/06/15 09:17:29;;;;;;;0.32;0.30;;;21.20;59.00;;;;;;5013567;28;20467;-75
2021/06/15 09:20:16;;;;;;;0.13;0.13;;;21.20;59.20;;;;;;5013208;28;20026;-75
2021/06/15 09:22:42;;;;;;;0.20;0.20;;;21.30;59.10;;;;;;4995747;28;20033;-76
2021/06/15 09:25:14;;;;;;;0.32;0.30;;;21.30;59.00;;;;;;5013328;28;20022;-74
2021/06/15 09:27:40;;;;;;;0.30;0.20;;;21.20;59.00;;;;;;5012981;28;20076;-75
2021/06/15 09:30:14;;;;;;;0.30;0.30;;;21.30;58.90;;;;;;5013133;28;20032;-74
2021/06/15 09:32:44;;;;;;;0.40;0.20;;;21.30;58.80;;;;;;5013324;28;20021;-76
2021/06/15 09:35:36;;;;;;;0.20;0.20;;;21.30;58.80;;;;;;5013747;28;20045;-76
2021/06/15 09:38:02;;;;;;;0.22;0.22;;;21.30;58.70;;;;;;5014684;28;20058;-75
2021/06/15 09:40:28;;;;;;;0.10;0.10;;;21.40;58.60;;;;;;4999340;28;20509;-75
2021/06/15 09:42:59;;;;;;;0.40;0.20;;;21.50;58.50;;;;;;5016557;28;20032;-75
2021/06/15 09:45:35;;;;;;;0.10;0.10;;;21.60;58.30;;;;;;4999473;28;20018;-74
2021/06/15 09:48:24;;;;;;;0.13;0.13;;;21.60;58.20;;;;;;5016924;28;20049;-75
2021/06/15 09:50:57;;;;;;;0.38;0.32;;;21.70;58.00;;;;;;5016991;28;20061;-74
2021/06/15 09:53:28;;;;;;;0.40;0.30;;;21.70;58.00;;;;;;5016929;28;20033;-74
2021/06/15 09:55:56;;;;;;;0.45;0.38;;;21.70;58.00;;;;;;4998782;28;20025;-74
2021/06/15 09:58:43;;;;;;;0.10;0.10;;;21.70;58.00;;;;;;5016804;28;20026;-75
2021/06/15 10:01:10;;;;;;;1.02;0.20;;;21.80;57.70;;;;;;5016676;28;20065;-74
2021/06/15 10:03:36;;;;;;;0.10;0.10;;;22.00;57.60;;;;;;5016699;28;20022;-75
2021/06/15 10:06:03;;;;;;;0.20;0.20;;;22.10;57.30;;;;;;5016676;28;20030;-74
2021/06/15 10:08:45;;;;;;;0.22;0.10;;;22.20;57.30;;;;;;5016877;28;20061;-74
2021/06/15 10:11:11;;;;;;;0.60;0.10;;;22.40;57.00;;;;;;5016004;28;20155;-76
2021/06/15 10:13:38;;;;;;;0.95;0.20;;;22.70;56.90;;;;;;5016712;28;20117;-75
2021/06/15 10:16:04;;;;;;;0.10;0.10;;;22.80;56.50;;;;;;5016500;28;20022;-75
2021/06/15 10:18:32;;;;;;;0.57;0.20;;;22.90;56.40;;;;;;5016797;28;20029;-75
2021/06/15 10:20:58;;;;;;;0.30;0.30;;;22.90;56.30;;;;;;5016299;28;20026;-75
2021/06/15 10:23:23;;;;;;;0.10;0.10;;;22.90;56.50;;;;;;5016194;28;20026;-76
2021/06/15 10:25:49;;;;;;;0.10;0.10;;;23.00;56.50;;;;;;5015789;28;20026;-75
2021/06/15 10:28:15;;;;;;;0.55;0.20;;;23.10;57.00;;;;;;5016439;28;20513;-75
2021/06/15 10:30:45;;;;;;;0.35;0.20;;;23.20;56.20;;;;;;5016313;28;20044;-75
2021/06/15 10:33:14;;;;;;;0.40;0.20;;;23.20;56.00;;;;;;5015870;28;20044;-75
2021/06/15 10:35:47;;;;;;;0.10;0.10;;;23.30;56.00;;;;;;5016118;28;20034;-73
2021/06/15 10:38:19;;;;;;;0.95;0.40;;;23.50;55.50;;;;;;5016064;28;20029;-76
2021/06/15 10:40:47;;;;;;;0.10;0.10;;;23.60;55.30;;;;;;5015637;28;20112;-77
2021/06/15 10:43:20;;;;;;;0.10;0.10;;;23.50;55.60;;;;;;5015954;28;20080;-75
2021/06/15 10:45:56;;;;;;;0.20;0.20;;;23.60;55.40;;;;;;5016003;28;20026;-76
2021/06/15 10:48:21;;;;;;;0.13;0.10;;;23.60;55.30;;;;;;5015230;28;20033;-76
2021/06/15 10:50:49;;;;;;;0.43;0.43;;;23.60;55.30;;;;;;5015943;28;20018;-76
2021/06/15 10:53:16;;;;;;;0.10;0.10;;;23.70;55.10;;;;;;4998155;28;20668;-77
2021/06/15 10:55:48;;;;;;;0.20;0.20;;;23.60;55.00;;;;;;4997651;28;20118;-76
2021/06/15 10:58:15;;;;;;;1.27;0.30;;;23.50;55.10;;;;;;5015767;28;20026;-77
2021/06/15 11:00:51;;;;;;;0.35;0.35;;;23.50;55.00;;;;;;5015703;28;20057;-77
2021/06/15 11:03:17;;;;;;;0.45;0.30;;;23.60;54.90;;;;;;5015659;28;20026;-77
2021/06/15 11:05:55;;;;;;;0.30;0.30;;;23.60;54.60;;;;;;5015682;28;20532;-77
2021/06/15 11:08:24;;;;;;;0.30;0.20;;;23.60;54.70;;;;;;4997596;28;20383;-78
2021/06/15 11:10:51;;;;;;;0.57;0.43;;;23.60;54.40;;;;;;4997803;28;20046;-77
2021/06/15 11:13:17;;;;;;;0.30;0.30;;;23.70;54.40;;;;;;5015252;28;20030;-77
2021/06/15 11:16:00;;;;;;;0.22;0.15;;;23.80;54.30;;;;;;4997990;28;20493;-77
2021/06/15 11:18:26;;;;;;;1.08;0.43;;;24.00;54.00;;;;;;5015410;28;20431;-77
2021/06/15 11:20:52;;;;;;;0.63;0.20;;;24.20;53.70;;;;;;5015542;28;20030;-76
2021/06/15 11:23:20;;;;;;;0.22;0.20;;;24.50;53.20;;;;;;5014783;28;20022;-77
2021/06/15 11:26:08;;;;;;;0.20;0.20;;;24.70;53.00;;;;;;5015566;28;20030;-78
2021/06/15 11:28:55;;;;;;;1.73;0.65;;;25.40;52.40;;;;;;5014628;28;20034;-77
2021/06/15 11:31:21;;;;;;;0.10;0.10;;;26.40;51.20;;;;;;5015080;28;20037;-78
2021/06/15 11:33:58;;;;;;;0.20;0.20;;;27.10;50.30;;;;;;5015771;28;20046;-78
2021/06/15 11:36:59;;;;;;;0.30;0.30;;;27.60;49.70;;;;;;5015725;28;20025;-76
2021/06/15 11:39:27;;;;;;;0.50;0.30;;;27.60;49.80;;;;;;4939205;29;20043;-75
2021/06/15 11:42:20;;;;;;;0.20;0.10;;;27.60;50.00;;;;;;4955975;29;20073;-77
2021/06/15 11:44:58;;;;;;;0.10;0.10;;;28.20;49.60;;;;;;4955028;29;20405;-76
2021/06/15 11:47:36;;;;;;;0.25;0.25;;;28.60;49.20;;;;;;4954398;29;20035;-77
2021/06/15 11:50:20;;;;;;;0.20;0.20;;;28.80;49.00;;;;;;4954785;29;20047;-85
2021/06/15 11:52:54;;;;;;;0.60;0.30;;;29.00;48.80;;;;;;4954895;29;20031;-82
2021/06/15 11:55:31;;;;;;;0.40;0.40;;;28.50;48.90;;;;;;4954190;29;20054;-82
2021/06/15 11:58:05;;;;;;;0.70;0.30;;;28.50;49.20;;;;;;4954347;28;20035;-82
2021/06/15 12:00:33;;;;;;;0.55;0.22;;;28.90;48.70;;;;;;4953745;29;20031;-78
2021/06/15 12:03:08;;;;;;;1.10;0.60;;;29.20;48.30;;;;;;4954114;29;20463;-79
2021/06/15 12:05:34;;;;;;;1.27;0.52;;;28.70;48.10;;;;;;4954073;29;20609;-74
2021/06/15 12:08:00;;;;;;;0.77;0.60;;;28.20;49.10;;;;;;4953618;29;20142;-76
2021/06/15 12:10:27;;;;;;;0.30;0.30;;;28.20;48.90;;;;;;4954051;29;20110;-78
2021/06/15 12:13:08;;;;;;;0.50;0.50;;;28.20;48.70;;;;;;4971477;28;20046;-78
2021/06/15 12:15:42;;;;;;;0.30;0.30;;;28.00;48.70;;;;;;5014376;28;20052;-74
2021/06/15 12:18:16;;;;;;;0.45;0.35;;;27.80;49.20;;;;;;5014115;28;20096;-76
2021/06/15 12:21:00;;;;;;;0.10;0.10;;;28.00;49.10;;;;;;5131907;27;49782;-76
2021/06/15 12:23:44;;;;;;;0.80;0.30;;;28.50;48.80;;;;;;5131699;28;20034;-76
2021/06/15 12:26:13;;;;;;;1.05;0.43;;;28.80;48.30;;;;;;5113142;28;20020;-75
2021/06/15 12:28:51;;;;;;;0.35;0.30;;;28.60;48.50;;;;;;5131453;28;20016;-76
2021/06/15 12:31:26;;;;;;;0.25;0.20;;;28.50;48.90;;;;;;5131528;28;20483;-75
2021/06/15 12:33:57;;;;;;;0.38;0.28;;;28.80;48.70;;;;;;5131432;28;20029;-75
2021/06/15 12:36:28;;;;;;;0.20;0.20;;;29.10;48.20;;;;;;5130813;28;20011;-76
2021/06/15 12:39:06;;;;;;;0.25;0.25;;;29.20;48.10;;;;;;5131259;28;20116;-77
2021/06/15 12:41:32;;;;;;;0.23;0.23;;;29.30;48.00;;;;;;5131391;28;20460;-76
2021/06/15 12:44:00;;;;;;;0.13;0.13;;;29.30;48.00;;;;;;5131264;28;20026;-76
2021/06/15 12:46:29;;;;;;;0.82;0.47;;;29.10;48.00;;;;;;5131192;28;20072;-76
2021/06/15 12:48:56;;;;;;;0.32;0.32;;;28.90;48.20;;;;;;5131177;28;20076;-77
2021/06/15 12:51:46;;;;;;;0.52;0.20;;;28.90;48.30;;;;;;5130592;28;20028;-77
2021/06/15 12:54:37;;;;;;;0.52;0.20;;;29.00;48.00;;;;;;5130364;28;20035;-77
2021/06/15 12:57:03;;;;;;;0.20;0.20;;;28.80;48.20;;;;;;5130885;28;20080;-77
2021/06/15 12:59:35;;;;;;;0.65;0.30;;;28.70;48.30;;;;;;5130966;28;20430;-76
2021/06/15 13:02:15;;;;;;;0.20;0.20;;;29.10;47.90;;;;;;5130916;28;20107;-77
2021/06/15 13:04:43;;;;;;;0.50;0.30;;;29.50;47.40;;;;;;5130348;28;20023;-75